sensor_id;sensor_type;location;lat;lon;timestamp;P1;durP1;ratioP1;P2;durP2;ratioP2
10162;SDS011;5123;52.556;13.384;2023-07-22T00:01:39;6.07;;;5.50;;
10162;SDS011;5123;52.556;13.384;2023-07-22T00:04:11;6.50;;;5.70;;
10162;SDS011;5123;52.556;13.384;2023-07-22T00:06:44;6.30;;;5.70;;
10162;SDS011;5123;52.556;13.384;2023-07-22T00:09:19;6.37;;;5.80;;
10162;SDS011;5123;52.556;13.384;2023-07-22T00:11:52;6.00;;;5.40;;
10162;SDS011;5123;52.556;13.384;2023-07-22T00:14:25;6.17;;;5.60;;
10162;SDS011;5123;52.556;13.384;2023-07-22T00:17:01;5.97;;;5.40;;
10162;SDS011;5123;52.556;13.384;2023-07-22T00:19:34;6.27;;;5.67;;
10162;SDS011;5123;52.556;13.384;2023-07-22T00:22:07;5.97;;;5.43;;
10162;SDS011;5123;52.556;13.384;2023-07-22T00:24:39;5.60;;;5.10;;
10162;SDS011;5123;52.556;13.384;2023-07-22T00:27:15;5.53;;;5.03;;
10162;SDS011;5123;52.556;13.384;2023-07-22T00:29:50;5.93;;;5.33;;
10162;SDS011;5123;52.556;13.384;2023-07-22T00:32:24;7.30;;;4.87;;
10162;SDS011;5123;52.556;13.384;2023-07-22T00:34:57;6.93;;;5.57;;
10162;SDS011;5123;52.556;13.384;2023-07-22T00:37:30;6.10;;;5.60;;
10162;SDS011;5123;52.556;13.384;2023-07-22T00:40:03;5.77;;;5.27;;
10162;SDS011;5123;52.556;13.384;2023-07-22T00:42:43;5.90;;;5.40;;
10162;SDS011;5123;52.556;13.384;2023-07-22T00:45:16;6.97;;;5.60;;
10162;SDS011;5123;52.556;13.384;2023-07-22T00:47:50;5.83;;;5.33;;
10162;SDS011;5123;52.556;13.384;2023-07-22T00:50:23;6.43;;;5.93;;
10162;SDS011;5123;52.556;13.384;2023-07-22T00:52:56;7.93;;;5.93;;
10162;SDS011;5123;52.556;13.384;2023-07-22T00:55:29;6.20;;;5.70;;
10162;SDS011;5123;52.556;13.384;2023-07-22T00:58:03;6.53;;;5.93;;
10162;SDS011;5123;52.556;13.384;2023-07-22T01:00:36;7.10;;;6.50;;
10162;SDS011;5123;52.556;13.384;2023-07-22T01:03:10;6.77;;;6.17;;
10162;SDS011;5123;52.556;13.384;2023-07-22T01:05:44;7.73;;;6.77;;
10162;SDS011;5123;52.556;13.384;2023-07-22T01:08:18;7.07;;;6.47;;
10162;SDS011;5123;52.556;13.384;2023-07-22T01:10:51;7.37;;;6.67;;
10162;SDS011;5123;52.556;13.384;2023-07-22T01:13:26;8.20;;;7.33;;
10162;SDS011;5123;52.556;13.384;2023-07-22T01:15:59;7.63;;;6.97;;
10162;SDS011;5123;52.556;13.384;2023-07-22T01:18:33;8.97;;;6.90;;
10162;SDS011;5123;52.556;13.384;2023-07-22T01:21:07;7.73;;;6.97;;
10162;SDS011;5123;52.556;13.384;2023-07-22T01:23:42;7.10;;;6.50;;
10162;SDS011;5123;52.556;13.384;2023-07-22T01:26:15;7.83;;;7.00;;
10162;SDS011;5123;52.556;13.384;2023-07-22T01:28:47;7.20;;;6.53;;
10162;SDS011;5123;52.556;13.384;2023-07-22T01:31:20;7.87;;;7.17;;
10162;SDS011;5123;52.556;13.384;2023-07-22T01:33:53;7.20;;;6.57;;
10162;SDS011;5123;52.556;13.384;2023-07-22T01:36:26;7.20;;;6.60;;
10162;SDS011;5123;52.556;13.384;2023-07-22T01:39:00;7.20;;;6.60;;
10162;SDS011;5123;52.556;13.384;2023-07-22T01:41:33;8.33;;;6.43;;
10162;SDS011;5123;52.556;13.384;2023-07-22T01:44:06;7.10;;;6.40;;
10162;SDS011;5123;52.556;13.384;2023-07-22T01:46:39;7.33;;;6.60;;
10162;SDS011;5123;52.556;13.384;2023-07-22T01:49:12;7.10;;;6.50;;
10162;SDS011;5123;52.556;13.384;2023-07-22T01:51:45;7.23;;;6.60;;
10162;SDS011;5123;52.556;13.384;2023-07-22T01:54:19;7.20;;;6.60;;
10162;SDS011;5123;52.556;13.384;2023-07-22T01:56:52;7.13;;;6.53;;
10162;SDS011;5123;52.556;13.384;2023-07-22T01:59:25;7.50;;;6.90;;
10162;SDS011;5123;52.556;13.384;2023-07-22T02:01:57;7.23;;;6.60;;
10162;SDS011;5123;52.556;13.384;2023-07-22T02:04:30;7.93;;;7.10;;
10162;SDS011;5123;52.556;13.384;2023-07-22T02:07:03;7.93;;;7.23;;
10162;SDS011;5123;52.556;13.384;2023-07-22T02:09:40;9.10;;;7.33;;
10162;SDS011;5123;52.556;13.384;2023-07-22T02:12:13;7.57;;;6.80;;
10162;SDS011;5123;52.556;13.384;2023-07-22T02:14:48;6.73;;;6.20;;
10162;SDS011;5123;52.556;13.384;2023-07-22T02:17:21;7.80;;;7.10;;
10162;SDS011;5123;52.556;13.384;2023-07-22T02:19:55;7.30;;;6.60;;
10162;SDS011;5123;52.556;13.384;2023-07-22T02:22:27;7.33;;;6.57;;
10162;SDS011;5123;52.556;13.384;2023-07-22T02:25:05;6.87;;;6.17;;
10162;SDS011;5123;52.556;13.384;2023-07-22T02:27:38;6.67;;;5.77;;
10162;SDS011;5123;52.556;13.384;2023-07-22T02:30:12;7.43;;;6.73;;
10162;SDS011;5123;52.556;13.384;2023-07-22T02:32:45;7.07;;;6.47;;
10162;SDS011;5123;52.556;13.384;2023-07-22T02:35:17;7.57;;;6.20;;
10162;SDS011;5123;52.556;13.384;2023-07-22T02:37:52;12.77;;;6.57;;
10162;SDS011;5123;52.556;13.384;2023-07-22T02:40:29;7.67;;;6.63;;
10162;SDS011;5123;52.556;13.384;2023-07-22T02:43:02;6.53;;;5.37;;
10162;SDS011;5123;52.556;13.384;2023-07-22T02:45:36;6.33;;;5.80;;
10162;SDS011;5123;52.556;13.384;2023-07-22T02:48:12;6.07;;;5.33;;
10162;SDS011;5123;52.556;13.384;2023-07-22T02:50:46;6.20;;;5.53;;
10162;SDS011;5123;52.556;13.384;2023-07-22T02:53:18;5.90;;;5.27;;
10162;SDS011;5123;52.556;13.384;2023-07-22T02:55:55;5.97;;;5.47;;
10162;SDS011;5123;52.556;13.384;2023-07-22T02:58:30;8.47;;;5.73;;
10162;SDS011;5123;52.556;13.384;2023-07-22T03:01:03;6.03;;;5.43;;
10162;SDS011;5123;52.556;13.384;2023-07-22T03:03:36;8.83;;;5.93;;
10162;SDS011;5123;52.556;13.384;2023-07-22T03:06:08;5.73;;;5.23;;
10162;SDS011;5123;52.556;13.384;2023-07-22T03:08:42;5.83;;;5.30;;
10162;SDS011;5123;52.556;13.384;2023-07-22T03:11:16;5.63;;;5.13;;
10162;SDS011;5123;52.556;13.384;2023-07-22T03:13:49;6.00;;;5.10;;
10162;SDS011;5123;52.556;13.384;2023-07-22T03:16:21;5.33;;;4.93;;
10162;SDS011;5123;52.556;13.384;2023-07-22T03:18:55;7.67;;;5.90;;
10162;SDS011;5123;52.556;13.384;2023-07-22T03:21:27;6.37;;;5.77;;
10162;SDS011;5123;52.556;13.384;2023-07-22T03:24:00;9.33;;;5.40;;
10162;SDS011;5123;52.556;13.384;2023-07-22T03:26:34;5.43;;;5.03;;
10162;SDS011;5123;52.556;13.384;2023-07-22T03:29:07;6.00;;;5.43;;
10162;SDS011;5123;52.556;13.384;2023-07-22T03:31:40;5.67;;;5.17;;
10162;SDS011;5123;52.556;13.384;2023-07-22T03:34:13;5.27;;;4.83;;
10162;SDS011;5123;52.556;13.384;2023-07-22T03:36:46;5.60;;;4.90;;
10162;SDS011;5123;52.556;13.384;2023-07-22T03:39:19;5.53;;;5.03;;
10162;SDS011;5123;52.556;13.384;2023-07-22T03:41:53;6.00;;;5.33;;
10162;SDS011;5123;52.556;13.384;2023-07-22T03:44:27;5.80;;;5.30;;
10162;SDS011;5123;52.556;13.384;2023-07-22T03:47:01;7.20;;;5.67;;
10162;SDS011;5123;52.556;13.384;2023-07-22T03:49:34;7.87;;;6.83;;
10162;SDS011;5123;52.556;13.384;2023-07-22T03:52:07;8.77;;;5.57;;
10162;SDS011;5123;52.556;13.384;2023-07-22T03:54:40;5.80;;;5.40;;
10162;SDS011;5123;52.556;13.384;2023-07-22T03:57:16;6.60;;;5.53;;
10162;SDS011;5123;52.556;13.384;2023-07-22T03:59:49;9.60;;;5.97;;
10162;SDS011;5123;52.556;13.384;2023-07-22T04:02:21;8.17;;;6.00;;
10162;SDS011;5123;52.556;13.384;2023-07-22T04:04:54;6.57;;;5.53;;
10162;SDS011;5123;52.556;13.384;2023-07-22T04:07:27;6.13;;;5.63;;
10162;SDS011;5123;52.556;13.384;2023-07-22T04:10:00;5.80;;;5.30;;
10162;SDS011;5123;52.556;13.384;2023-07-22T04:12:38;6.00;;;5.50;;
10162;SDS011;5123;52.556;13.384;2023-07-22T04:15:13;6.70;;;5.53;;
10162;SDS011;5123;52.556;13.384;2023-07-22T04:17:46;6.40;;;5.47;;
10162;SDS011;5123;52.556;13.384;2023-07-22T04:20:19;6.13;;;5.60;;
10162;SDS011;5123;52.556;13.384;2023-07-22T04:22:51;5.97;;;5.37;;
10162;SDS011;5123;52.556;13.384;2023-07-22T04:25:24;6.73;;;5.57;;
10162;SDS011;5123;52.556;13.384;2023-07-22T04:28:01;5.97;;;5.40;;
10162;SDS011;5123;52.556;13.384;2023-07-22T04:30:34;5.27;;;4.77;;
10162;SDS011;5123;52.556;13.384;2023-07-22T04:33:06;5.80;;;5.20;;
10162;SDS011;5123;52.556;13.384;2023-07-22T04:35:42;6.20;;;5.57;;
10162;SDS011;5123;52.556;13.384;2023-07-22T04:38:14;5.07;;;4.67;;
10162;SDS011;5123;52.556;13.384;2023-07-22T04:40:47;5.20;;;4.80;;
10162;SDS011;5123;52.556;13.384;2023-07-22T04:43:22;5.80;;;5.07;;
10162;SDS011;5123;52.556;13.384;2023-07-22T04:45:56;5.53;;;5.03;;
10162;SDS011;5123;52.556;13.384;2023-07-22T04:48:37;6.83;;;5.43;;
10162;SDS011;5123;52.556;13.384;2023-07-22T04:51:10;5.93;;;5.33;;
10162;SDS011;5123;52.556;13.384;2023-07-22T04:53:43;5.53;;;5.03;;
10162;SDS011;5123;52.556;13.384;2023-07-22T04:56:16;7.67;;;5.57;;
10162;SDS011;5123;52.556;13.384;2023-07-22T04:58:50;7.17;;;4.80;;
10162;SDS011;5123;52.556;13.384;2023-07-22T05:01:22;5.90;;;5.40;;
10162;SDS011;5123;52.556;13.384;2023-07-22T05:03:55;6.13;;;5.63;;
10162;SDS011;5123;52.556;13.384;2023-07-22T05:06:29;6.10;;;5.37;;
10162;SDS011;5123;52.556;13.384;2023-07-22T05:09:02;6.23;;;5.73;;
10162;SDS011;5123;52.556;13.384;2023-07-22T05:11:37;6.83;;;6.13;;
10162;SDS011;5123;52.556;13.384;2023-07-22T05:14:14;6.97;;;6.07;;
10162;SDS011;5123;52.556;13.384;2023-07-22T05:16:47;6.80;;;6.03;;
10162;SDS011;5123;52.556;13.384;2023-07-22T05:19:19;8.20;;;5.87;;
10162;SDS011;5123;52.556;13.384;2023-07-22T05:21:52;8.20;;;7.47;;
10162;SDS011;5123;52.556;13.384;2023-07-22T05:24:25;6.43;;;5.83;;
10162;SDS011;5123;52.556;13.384;2023-07-22T05:26:58;7.80;;;6.43;;
10162;SDS011;5123;52.556;13.384;2023-07-22T05:32:25;7.30;;;6.20;;
10162;SDS011;5123;52.556;13.384;2023-07-22T05:35:04;7.57;;;6.77;;
10162;SDS011;5123;52.556;13.384;2023-07-22T05:37:38;7.57;;;6.73;;
10162;SDS011;5123;52.556;13.384;2023-07-22T05:40:10;8.57;;;6.93;;
10162;SDS011;5123;52.556;13.384;2023-07-22T05:42:43;8.30;;;7.33;;
10162;SDS011;5123;52.556;13.384;2023-07-22T05:45:16;7.63;;;6.60;;
10162;SDS011;5123;52.556;13.384;2023-07-22T05:47:50;8.43;;;6.97;;
10162;SDS011;5123;52.556;13.384;2023-07-22T05:50:26;7.67;;;6.53;;
10162;SDS011;5123;52.556;13.384;2023-07-22T05:52:58;8.67;;;6.73;;
10162;SDS011;5123;52.556;13.384;2023-07-22T05:55:31;9.90;;;7.60;;
10162;SDS011;5123;52.556;13.384;2023-07-22T05:58:03;7.27;;;6.57;;
10162;SDS011;5123;52.556;13.384;2023-07-22T06:00:37;8.90;;;6.83;;
10162;SDS011;5123;52.556;13.384;2023-07-22T06:03:12;9.43;;;6.83;;
10162;SDS011;5123;52.556;13.384;2023-07-22T06:05:45;7.50;;;6.47;;
10162;SDS011;5123;52.556;13.384;2023-07-22T06:08:18;7.40;;;6.57;;
10162;SDS011;5123;52.556;13.384;2023-07-22T06:10:51;8.13;;;7.10;;
10162;SDS011;5123;52.556;13.384;2023-07-22T06:13:24;9.40;;;6.83;;
10162;SDS011;5123;52.556;13.384;2023-07-22T06:15:58;8.97;;;7.00;;
10162;SDS011;5123;52.556;13.384;2023-07-22T06:18:34;10.93;;;7.37;;
10162;SDS011;5123;52.556;13.384;2023-07-22T06:21:07;9.10;;;6.97;;
10162;SDS011;5123;52.556;13.384;2023-07-22T06:23:41;7.83;;;6.77;;
10162;SDS011;5123;52.556;13.384;2023-07-22T06:26:13;7.63;;;6.70;;
10162;SDS011;5123;52.556;13.384;2023-07-22T06:28:46;7.73;;;6.83;;
10162;SDS011;5123;52.556;13.384;2023-07-22T06:31:22;8.03;;;7.23;;
10162;SDS011;5123;52.556;13.384;2023-07-22T06:33:56;7.47;;;5.87;;
10162;SDS011;5123;52.556;13.384;2023-07-22T06:36:29;10.00;;;7.37;;
10162;SDS011;5123;52.556;13.384;2023-07-22T06:39:02;7.47;;;6.17;;
10162;SDS011;5123;52.556;13.384;2023-07-22T06:41:35;9.23;;;6.93;;
10162;SDS011;5123;52.556;13.384;2023-07-22T06:44:09;7.90;;;5.87;;
10162;SDS011;5123;52.556;13.384;2023-07-22T06:46:41;7.73;;;6.23;;
10162;SDS011;5123;52.556;13.384;2023-07-22T06:49:17;9.00;;;6.90;;
10162;SDS011;5123;52.556;13.384;2023-07-22T06:51:49;8.13;;;5.90;;
10162;SDS011;5123;52.556;13.384;2023-07-22T06:54:26;11.03;;;6.53;;
10162;SDS011;5123;52.556;13.384;2023-07-22T06:56:58;7.83;;;6.03;;
10162;SDS011;5123;52.556;13.384;2023-07-22T06:59:32;7.60;;;6.00;;
10162;SDS011;5123;52.556;13.384;2023-07-22T07:02:05;6.07;;;5.17;;
10162;SDS011;5123;52.556;13.384;2023-07-22T07:04:39;5.80;;;4.53;;
10162;SDS011;5123;52.556;13.384;2023-07-22T07:07:12;6.43;;;5.13;;
10162;SDS011;5123;52.556;13.384;2023-07-22T07:09:47;5.73;;;4.77;;
10162;SDS011;5123;52.556;13.384;2023-07-22T07:12:20;5.17;;;4.30;;
10162;SDS011;5123;52.556;13.384;2023-07-22T07:14:53;6.07;;;4.63;;
10162;SDS011;5123;52.556;13.384;2023-07-22T07:17:26;7.27;;;4.77;;
10162;SDS011;5123;52.556;13.384;2023-07-22T07:20:03;5.53;;;3.80;;
10162;SDS011;5123;52.556;13.384;2023-07-22T07:22:39;5.80;;;4.00;;
10162;SDS011;5123;52.556;13.384;2023-07-22T07:25:12;6.47;;;4.37;;
10162;SDS011;5123;52.556;13.384;2023-07-22T07:27:46;6.27;;;4.63;;
10162;SDS011;5123;52.556;13.384;2023-07-22T07:30:19;6.03;;;4.57;;
10162;SDS011;5123;52.556;13.384;2023-07-22T07:32:54;5.80;;;4.70;;
10162;SDS011;5123;52.556;13.384;2023-07-22T07:35:29;6.97;;;4.93;;
10162;SDS011;5123;52.556;13.384;2023-07-22T07:38:02;6.17;;;4.70;;
10162;SDS011;5123;52.556;13.384;2023-07-22T07:40:35;7.20;;;4.57;;
10162;SDS011;5123;52.556;13.384;2023-07-22T07:43:13;5.57;;;3.70;;
10162;SDS011;5123;52.556;13.384;2023-07-22T07:45:46;6.87;;;5.03;;
10162;SDS011;5123;52.556;13.384;2023-07-22T07:48:20;8.57;;;4.63;;
10162;SDS011;5123;52.556;13.384;2023-07-22T07:50:54;7.03;;;4.47;;
10162;SDS011;5123;52.556;13.384;2023-07-22T07:53:27;7.07;;;5.00;;
10162;SDS011;5123;52.556;13.384;2023-07-22T07:56:00;5.80;;;4.30;;
10162;SDS011;5123;52.556;13.384;2023-07-22T07:58:32;7.63;;;4.37;;
10162;SDS011;5123;52.556;13.384;2023-07-22T08:01:05;5.47;;;3.90;;
10162;SDS011;5123;52.556;13.384;2023-07-22T08:03:41;5.20;;;4.20;;
10162;SDS011;5123;52.556;13.384;2023-07-22T08:06:15;7.37;;;4.47;;
10162;SDS011;5123;52.556;13.384;2023-07-22T08:08:50;5.73;;;3.70;;
10162;SDS011;5123;52.556;13.384;2023-07-22T08:11:26;4.53;;;3.73;;
10162;SDS011;5123;52.556;13.384;2023-07-22T08:14:01;8.00;;;5.00;;
10162;SDS011;5123;52.556;13.384;2023-07-22T08:16:34;13.17;;;5.50;;
10162;SDS011;5123;52.556;13.384;2023-07-22T08:19:07;6.77;;;4.50;;
10162;SDS011;5123;52.556;13.384;2023-07-22T08:21:41;6.03;;;4.20;;
10162;SDS011;5123;52.556;13.384;2023-07-22T08:24:14;6.60;;;4.60;;
10162;SDS011;5123;52.556;13.384;2023-07-22T08:26:46;6.20;;;4.87;;
10162;SDS011;5123;52.556;13.384;2023-07-22T08:29:19;6.40;;;4.53;;
10162;SDS011;5123;52.556;13.384;2023-07-22T08:31:52;5.07;;;4.07;;
10162;SDS011;5123;52.556;13.384;2023-07-22T08:34:25;6.80;;;4.20;;
10162;SDS011;5123;52.556;13.384;2023-07-22T08:36:59;5.20;;;4.70;;
10162;SDS011;5123;52.556;13.384;2023-07-22T08:39:32;8.33;;;4.33;;
10162;SDS011;5123;52.556;13.384;2023-07-22T08:42:05;5.93;;;4.47;;
10162;SDS011;5123;52.556;13.384;2023-07-22T08:44:40;7.53;;;4.60;;
10162;SDS011;5123;52.556;13.384;2023-07-22T08:47:15;5.43;;;4.30;;
10162;SDS011;5123;52.556;13.384;2023-07-22T08:49:49;5.40;;;4.57;;
10162;SDS011;5123;52.556;13.384;2023-07-22T08:52:24;6.33;;;4.70;;
10162;SDS011;5123;52.556;13.384;2023-07-22T08:54:57;4.60;;;4.07;;
10162;SDS011;5123;52.556;13.384;2023-07-22T08:57:30;6.17;;;4.77;;
10162;SDS011;5123;52.556;13.384;2023-07-22T09:00:04;5.77;;;5.03;;
10162;SDS011;5123;52.556;13.384;2023-07-22T09:02:40;7.50;;;4.47;;
10162;SDS011;5123;52.556;13.384;2023-07-22T09:05:16;6.43;;;5.13;;
10162;SDS011;5123;52.556;13.384;2023-07-22T09:07:50;5.77;;;4.33;;
10162;SDS011;5123;52.556;13.384;2023-07-22T09:10:23;6.33;;;4.90;;
10162;SDS011;5123;52.556;13.384;2023-07-22T09:12:59;6.20;;;4.67;;
10162;SDS011;5123;52.556;13.384;2023-07-22T09:15:34;5.67;;;4.70;;
10162;SDS011;5123;52.556;13.384;2023-07-22T09:18:07;6.03;;;4.13;;
10162;SDS011;5123;52.556;13.384;2023-07-22T09:20:40;5.67;;;4.00;;
10162;SDS011;5123;52.556;13.384;2023-07-22T09:23:15;9.03;;;4.70;;
10162;SDS011;5123;52.556;13.384;2023-07-22T09:25:48;6.00;;;3.93;;
10162;SDS011;5123;52.556;13.384;2023-07-22T09:28:20;7.80;;;4.00;;
10162;SDS011;5123;52.556;13.384;2023-07-22T09:31:00;5.73;;;3.70;;
10162;SDS011;5123;52.556;13.384;2023-07-22T09:33:35;5.10;;;4.07;;
10162;SDS011;5123;52.556;13.384;2023-07-22T09:36:09;7.60;;;4.30;;
10162;SDS011;5123;52.556;13.384;2023-07-22T09:38:43;5.70;;;3.63;;
10162;SDS011;5123;52.556;13.384;2023-07-22T09:41:18;4.83;;;3.60;;
10162;SDS011;5123;52.556;13.384;2023-07-22T09:43:51;6.37;;;3.37;;
10162;SDS011;5123;52.556;13.384;2023-07-22T09:46:25;4.13;;;3.73;;
10162;SDS011;5123;52.556;13.384;2023-07-22T09:49:03;4.27;;;3.50;;
10162;SDS011;5123;52.556;13.384;2023-07-22T09:51:38;5.47;;;2.90;;
10162;SDS011;5123;52.556;13.384;2023-07-22T09:54:32;5.37;;;3.07;;
10162;SDS011;5123;52.556;13.384;2023-07-22T09:57:05;3.87;;;2.57;;
10162;SDS011;5123;52.556;13.384;2023-07-22T09:59:38;4.10;;;2.23;;
10162;SDS011;5123;52.556;13.384;2023-07-22T10:02:11;2.50;;;2.30;;
10162;SDS011;5123;52.556;13.384;2023-07-22T10:04:44;2.80;;;2.37;;
10162;SDS011;5123;52.556;13.384;2023-07-22T10:07:17;3.67;;;2.73;;
10162;SDS011;5123;52.556;13.384;2023-07-22T10:09:53;2.67;;;2.37;;
10162;SDS011;5123;52.556;13.384;2023-07-22T10:12:26;4.00;;;2.60;;
10162;SDS011;5123;52.556;13.384;2023-07-22T10:14:59;3.00;;;2.40;;
10162;SDS011;5123;52.556;13.384;2023-07-22T10:17:33;3.60;;;2.80;;
10162;SDS011;5123;52.556;13.384;2023-07-22T10:20:07;2.93;;;2.60;;
10162;SDS011;5123;52.556;13.384;2023-07-22T10:22:42;3.67;;;2.67;;
10162;SDS011;5123;52.556;13.384;2023-07-22T10:25:18;2.97;;;2.47;;
10162;SDS011;5123;52.556;13.384;2023-07-22T10:27:51;3.30;;;2.63;;
10162;SDS011;5123;52.556;13.384;2023-07-22T10:30:24;3.47;;;2.80;;
10162;SDS011;5123;52.556;13.384;2023-07-22T10:32:57;2.87;;;2.50;;
10162;SDS011;5123;52.556;13.384;2023-07-22T10:35:40;3.77;;;2.60;;
10162;SDS011;5123;52.556;13.384;2023-07-22T10:38:13;5.70;;;3.30;;
10162;SDS011;5123;52.556;13.384;2023-07-22T10:40:49;3.27;;;2.90;;
10162;SDS011;5123;52.556;13.384;2023-07-22T10:43:23;6.00;;;2.63;;
10162;SDS011;5123;52.556;13.384;2023-07-22T10:45:57;3.83;;;2.83;;
10162;SDS011;5123;52.556;13.384;2023-07-22T10:48:34;3.97;;;2.90;;
10162;SDS011;5123;52.556;13.384;2023-07-22T10:51:10;4.00;;;2.80;;
10162;SDS011;5123;52.556;13.384;2023-07-22T10:53:43;4.10;;;2.60;;
10162;SDS011;5123;52.556;13.384;2023-07-22T10:56:18;4.10;;;2.90;;
10162;SDS011;5123;52.556;13.384;2023-07-22T10:59:01;4.03;;;2.77;;
10162;SDS011;5123;52.556;13.384;2023-07-22T11:01:36;4.27;;;3.03;;
10162;SDS011;5123;52.556;13.384;2023-07-22T11:04:12;4.20;;;2.90;;
10162;SDS011;5123;52.556;13.384;2023-07-22T11:06:52;4.20;;;3.30;;
10162;SDS011;5123;52.556;13.384;2023-07-22T11:09:38;2.93;;;2.60;;
10162;SDS011;5123;52.556;13.384;2023-07-22T11:12:15;5.23;;;3.13;;
10162;SDS011;5123;52.556;13.384;2023-07-22T11:14:49;3.57;;;3.17;;
10162;SDS011;5123;52.556;13.384;2023-07-22T11:17:27;3.43;;;2.70;;
10162;SDS011;5123;52.556;13.384;2023-07-22T11:20:01;4.97;;;3.27;;
10162;SDS011;5123;52.556;13.384;2023-07-22T11:22:34;4.10;;;3.20;;
10162;SDS011;5123;52.556;13.384;2023-07-22T11:25:07;4.93;;;3.40;;
10162;SDS011;5123;52.556;13.384;2023-07-22T11:27:41;3.53;;;2.90;;
10162;SDS011;5123;52.556;13.384;2023-07-22T11:30:14;4.63;;;3.93;;
10162;SDS011;5123;52.556;13.384;2023-07-22T11:32:47;5.97;;;4.03;;
10162;SDS011;5123;52.556;13.384;2023-07-22T11:35:22;4.67;;;4.00;;
10162;SDS011;5123;52.556;13.384;2023-07-22T11:38:00;6.57;;;4.07;;
10162;SDS011;5123;52.556;13.384;2023-07-22T11:40:33;3.93;;;3.27;;
10162;SDS011;5123;52.556;13.384;2023-07-22T11:43:07;4.43;;;3.33;;
10162;SDS011;5123;52.556;13.384;2023-07-22T11:45:44;5.03;;;3.37;;
10162;SDS011;5123;52.556;13.384;2023-07-22T11:48:17;3.93;;;3.40;;
10162;SDS011;5123;52.556;13.384;2023-07-22T11:50:58;8.33;;;4.00;;
10162;SDS011;5123;52.556;13.384;2023-07-22T11:53:30;5.23;;;4.03;;
10162;SDS011;5123;52.556;13.384;2023-07-22T11:56:03;4.77;;;4.17;;
10162;SDS011;5123;52.556;13.384;2023-07-22T11:58:40;4.63;;;3.73;;
10162;SDS011;5123;52.556;13.384;2023-07-22T12:01:16;3.90;;;3.27;;
10162;SDS011;5123;52.556;13.384;2023-07-22T12:03:49;4.00;;;3.60;;
10162;SDS011;5123;52.556;13.384;2023-07-22T12:06:25;4.67;;;3.20;;
10162;SDS011;5123;52.556;13.384;2023-07-22T12:08:58;3.53;;;3.20;;
10162;SDS011;5123;52.556;13.384;2023-07-22T12:11:41;4.80;;;3.40;;
10162;SDS011;5123;52.556;13.384;2023-07-22T12:14:15;5.70;;;3.67;;
10162;SDS011;5123;52.556;13.384;2023-07-22T12:16:52;4.43;;;3.27;;
10162;SDS011;5123;52.556;13.384;2023-07-22T12:19:26;4.73;;;3.90;;
10162;SDS011;5123;52.556;13.384;2023-07-22T12:21:59;7.50;;;4.17;;
10162;SDS011;5123;52.556;13.384;2023-07-22T12:24:33;4.10;;;3.50;;
10162;SDS011;5123;52.556;13.384;2023-07-22T12:27:06;5.33;;;3.70;;
10162;SDS011;5123;52.556;13.384;2023-07-22T12:29:45;5.40;;;3.47;;
10162;SDS011;5123;52.556;13.384;2023-07-22T12:32:18;5.20;;;3.80;;
10162;SDS011;5123;52.556;13.384;2023-07-22T12:34:53;4.47;;;3.93;;
10162;SDS011;5123;52.556;13.384;2023-07-22T12:37:25;4.07;;;3.67;;
10162;SDS011;5123;52.556;13.384;2023-07-22T12:40:01;4.27;;;3.63;;
10162;SDS011;5123;52.556;13.384;2023-07-22T12:42:36;5.13;;;3.90;;
10162;SDS011;5123;52.556;13.384;2023-07-22T12:45:10;4.60;;;3.90;;
10162;SDS011;5123;52.556;13.384;2023-07-22T12:47:43;4.77;;;3.33;;
10162;SDS011;5123;52.556;13.384;2023-07-22T12:50:16;4.43;;;3.53;;
10162;SDS011;5123;52.556;13.384;2023-07-22T12:52:49;4.50;;;3.90;;
10162;SDS011;5123;52.556;13.384;2023-07-22T12:55:21;6.00;;;4.57;;
10162;SDS011;5123;52.556;13.384;2023-07-22T12:57:54;5.00;;;4.20;;
10162;SDS011;5123;52.556;13.384;2023-07-22T13:00:29;5.07;;;4.17;;
10162;SDS011;5123;52.556;13.384;2023-07-22T13:03:04;7.10;;;4.03;;
10162;SDS011;5123;52.556;13.384;2023-07-22T13:05:37;4.83;;;4.23;;
10162;SDS011;5123;52.556;13.384;2023-07-22T13:08:10;4.93;;;4.03;;
10162;SDS011;5123;52.556;13.384;2023-07-22T13:10:43;5.17;;;3.97;;
10162;SDS011;5123;52.556;13.384;2023-07-22T13:13:18;4.90;;;4.33;;
10162;SDS011;5123;52.556;13.384;2023-07-22T13:15:55;4.97;;;4.20;;
10162;SDS011;5123;52.556;13.384;2023-07-22T13:18:28;4.67;;;4.10;;
10162;SDS011;5123;52.556;13.384;2023-07-22T13:21:01;4.23;;;3.83;;
10162;SDS011;5123;52.556;13.384;2023-07-22T13:23:36;6.97;;;4.00;;
10162;SDS011;5123;52.556;13.384;2023-07-22T13:26:08;5.97;;;4.57;;
10162;SDS011;5123;52.556;13.384;2023-07-22T13:28:41;5.57;;;4.63;;
10162;SDS011;5123;52.556;13.384;2023-07-22T13:31:20;5.07;;;4.53;;
10162;SDS011;5123;52.556;13.384;2023-07-22T13:33:53;4.53;;;4.00;;
10162;SDS011;5123;52.556;13.384;2023-07-22T13:36:25;5.77;;;4.43;;
10162;SDS011;5123;52.556;13.384;2023-07-22T13:39:04;4.80;;;4.07;;
10162;SDS011;5123;52.556;13.384;2023-07-22T13:41:36;5.17;;;4.40;;
10162;SDS011;5123;52.556;13.384;2023-07-22T13:44:09;4.80;;;4.40;;
10162;SDS011;5123;52.556;13.384;2023-07-22T13:46:44;4.33;;;3.93;;
10162;SDS011;5123;52.556;13.384;2023-07-22T13:49:16;4.90;;;4.40;;
10162;SDS011;5123;52.556;13.384;2023-07-22T13:51:50;4.70;;;4.20;;
10162;SDS011;5123;52.556;13.384;2023-07-22T13:54:25;5.27;;;3.97;;
10162;SDS011;5123;52.556;13.384;2023-07-22T13:56:58;4.27;;;3.83;;
10162;SDS011;5123;52.556;13.384;2023-07-22T13:59:30;4.73;;;4.20;;
10162;SDS011;5123;52.556;13.384;2023-07-22T14:02:05;5.60;;;4.47;;
10162;SDS011;5123;52.556;13.384;2023-07-22T14:04:38;4.70;;;4.30;;
10162;SDS011;5123;52.556;13.384;2023-07-22T14:07:11;4.10;;;3.70;;
10162;SDS011;5123;52.556;13.384;2023-07-22T14:09:43;4.57;;;4.17;;
10162;SDS011;5123;52.556;13.384;2023-07-22T14:12:16;5.27;;;3.93;;
10162;SDS011;5123;52.556;13.384;2023-07-22T14:14:49;5.73;;;4.40;;
10162;SDS011;5123;52.556;13.384;2023-07-22T14:17:23;4.97;;;4.47;;
10162;SDS011;5123;52.556;13.384;2023-07-22T14:19:56;4.40;;;3.90;;
10162;SDS011;5123;52.556;13.384;2023-07-22T14:22:29;4.33;;;3.93;;
10162;SDS011;5123;52.556;13.384;2023-07-22T14:25:02;4.77;;;4.00;;
10162;SDS011;5123;52.556;13.384;2023-07-22T14:27:37;5.47;;;4.50;;
10162;SDS011;5123;52.556;13.384;2023-07-22T14:30:13;4.97;;;4.43;;
10162;SDS011;5123;52.556;13.384;2023-07-22T14:32:48;5.03;;;4.27;;
10162;SDS011;5123;52.556;13.384;2023-07-22T14:35:21;4.90;;;4.50;;
10162;SDS011;5123;52.556;13.384;2023-07-22T14:37:54;5.57;;;4.43;;
10162;SDS011;5123;52.556;13.384;2023-07-22T14:40:30;5.17;;;4.67;;
10162;SDS011;5123;52.556;13.384;2023-07-22T14:43:03;4.77;;;4.00;;
10162;SDS011;5123;52.556;13.384;2023-07-22T14:45:36;6.80;;;4.37;;
10162;SDS011;5123;52.556;13.384;2023-07-22T14:48:10;6.70;;;4.53;;
10162;SDS011;5123;52.556;13.384;2023-07-22T14:50:43;6.30;;;4.87;;
10162;SDS011;5123;52.556;13.384;2023-07-22T14:53:17;5.10;;;4.60;;
10162;SDS011;5123;52.556;13.384;2023-07-22T14:55:50;4.40;;;4.00;;
10162;SDS011;5123;52.556;13.384;2023-07-22T14:58:25;5.67;;;4.50;;
10162;SDS011;5123;52.556;13.384;2023-07-22T15:00:58;5.93;;;4.17;;
10162;SDS011;5123;52.556;13.384;2023-07-22T15:03:36;6.30;;;4.93;;
10162;SDS011;5123;52.556;13.384;2023-07-22T15:06:09;4.50;;;4.10;;
10162;SDS011;5123;52.556;13.384;2023-07-22T15:08:41;4.63;;;4.23;;
10162;SDS011;5123;52.556;13.384;2023-07-22T15:11:14;6.07;;;4.57;;
10162;SDS011;5123;52.556;13.384;2023-07-22T15:13:47;4.53;;;3.90;;
10162;SDS011;5123;52.556;13.384;2023-07-22T15:16:20;5.37;;;4.53;;
10162;SDS011;5123;52.556;13.384;2023-07-22T15:18:54;5.53;;;4.63;;
10162;SDS011;5123;52.556;13.384;2023-07-22T15:21:26;5.37;;;4.73;;
10162;SDS011;5123;52.556;13.384;2023-07-22T15:24:00;5.40;;;4.57;;
10162;SDS011;5123;52.556;13.384;2023-07-22T15:26:33;5.07;;;4.57;;
10162;SDS011;5123;52.556;13.384;2023-07-22T15:29:06;5.50;;;4.97;;
10162;SDS011;5123;52.556;13.384;2023-07-22T15:31:39;5.10;;;4.60;;